sensor_id;sensor_type;location;lat;lon;timestamp;temperature;humidity
3416;DHT22;1721;51.238;9.562;2023-01-24T00:02:01;4.50;94.30
3416;DHT22;1721;51.238;9.562;2023-01-24T00:04:26;4.30;94.70
3416;DHT22;1721;51.238;9.562;2023-01-24T00:06:52;4.50;94.60
3416;DHT22;1721;51.238;9.562;2023-01-24T00:09:17;4.50;94.10
3416;DHT22;1721;51.238;9.562;2023-01-24T00:11:43;4.60;94.20
3416;DHT22;1721;51.238;9.562;2023-01-24T00:14:08;4.70;94.50
3416;DHT22;1721;51.238;9.562;2023-01-24T00:16:34;4.90;94.00
3416;DHT22;1721;51.238;9.562;2023-01-24T00:18:59;4.90;93.90
3416;DHT22;1721;51.238;9.562;2023-01-24T00:21:25;4.90;93.80
3416;DHT22;1721;51.238;9.562;2023-01-24T00:23:52;5.00;93.90
3416;DHT22;1721;51.238;9.562;2023-01-24T00:26:19;5.20;93.60
3416;DHT22;1721;51.238;9.562;2023-01-24T00:28:46;5.30;93.60
3416;DHT22;1721;51.238;9.562;2023-01-24T00:31:13;5.10;93.60
3416;DHT22;1721;51.238;9.562;2023-01-24T00:33:38;5.10;93.50
3416;DHT22;1721;51.238;9.562;2023-01-24T00:36:04;5.20;93.50
3416;DHT22;1721;51.238;9.562;2023-01-24T00:38:30;4.90;93.20
3416;DHT22;1721;51.238;9.562;2023-01-24T00:40:56;4.90;93.70
3416;DHT22;1721;51.238;9.562;2023-01-24T00:43:22;5.10;93.60
3416;DHT22;1721;51.238;9.562;2023-01-24T00:45:47;5.10;93.60
3416;DHT22;1721;51.238;9.562;2023-01-24T00:48:13;5.20;93.50
3416;DHT22;1721;51.238;9.562;2023-01-24T00:50:39;5.10;93.20
3416;DHT22;1721;51.238;9.562;2023-01-24T00:53:05;5.10;93.60
3416;DHT22;1721;51.238;9.562;2023-01-24T00:55:31;4.90;93.60
3416;DHT22;1721;51.238;9.562;2023-01-24T00:57:57;4.90;93.60
3416;DHT22;1721;51.238;9.562;2023-01-24T01:00:23;4.70;94.00
3416;DHT22;1721;51.238;9.562;2023-01-24T01:02:49;4.70;94.10
3416;DHT22;1721;51.238;9.562;2023-01-24T01:05:15;4.70;94.00
3416;DHT22;1721;51.238;9.562;2023-01-24T01:07:41;4.80;93.80
3416;DHT22;1721;51.238;9.562;2023-01-24T01:10:07;4.80;93.80
3416;DHT22;1721;51.238;9.562;2023-01-24T01:12:32;4.80;93.90
3416;DHT22;1721;51.238;9.562;2023-01-24T01:14:58;4.50;94.40
3416;DHT22;1721;51.238;9.562;2023-01-24T01:17:23;4.30;94.60
3416;DHT22;1721;51.238;9.562;2023-01-24T01:19:52;4.10;94.80
3416;DHT22;1721;51.238;9.562;2023-01-24T01:22:18;4.30;95.10
3416;DHT22;1721;51.238;9.562;2023-01-24T01:24:43;4.10;94.70
3416;DHT22;1721;51.238;9.562;2023-01-24T01:27:09;4.20;95.00
3416;DHT22;1721;51.238;9.562;2023-01-24T01:29:35;4.40;94.80
3416;DHT22;1721;51.238;9.562;2023-01-24T01:32:00;4.70;94.60
3416;DHT22;1721;51.238;9.562;2023-01-24T01:34:26;4.70;93.90
3416;DHT22;1721;51.238;9.562;2023-01-24T01:36:51;4.50;94.50
3416;DHT22;1721;51.238;9.562;2023-01-24T01:39:17;4.60;94.40
3416;DHT22;1721;51.238;9.562;2023-01-24T01:41:42;4.50;94.20
3416;DHT22;1721;51.238;9.562;2023-01-24T01:47:02;4.60;94.10
3416;DHT22;1721;51.238;9.562;2023-01-24T01:49:27;4.60;94.30
3416;DHT22;1721;51.238;9.562;2023-01-24T01:52:00;4.60;94.30
3416;DHT22;1721;51.238;9.562;2023-01-24T01:54:30;4.80;94.10
3416;DHT22;1721;51.238;9.562;2023-01-24T01:57:07;5.00;94.00
3416;DHT22;1721;51.238;9.562;2023-01-24T01:59:43;4.60;94.20
3416;DHT22;1721;51.238;9.562;2023-01-24T02:02:11;4.50;94.10
3416;DHT22;1721;51.238;9.562;2023-01-24T02:04:39;4.50;94.60
3416;DHT22;1721;51.238;9.562;2023-01-24T02:07:24;4.40;94.90
3416;DHT22;1721;51.238;9.562;2023-01-24T02:09:53;4.20;94.40
3416;DHT22;1721;51.238;9.562;2023-01-24T02:12:25;4.50;94.40
3416;DHT22;1721;51.238;9.562;2023-01-24T02:15:03;4.40;94.10
3416;DHT22;1721;51.238;9.562;2023-01-24T02:17:48;4.20;94.70
3416;DHT22;1721;51.238;9.562;2023-01-24T02:20:52;4.50;94.50
3416;DHT22;1721;51.238;9.562;2023-01-24T02:23:31;4.90;94.00
3416;DHT22;1721;51.238;9.562;2023-01-24T02:26:09;4.70;93.70
3416;DHT22;1721;51.238;9.562;2023-01-24T02:28:35;4.90;94.00
3416;DHT22;1721;51.238;9.562;2023-01-24T02:31:02;5.00;93.50
3416;DHT22;1721;51.238;9.562;2023-01-24T02:33:29;5.00;93.60
3416;DHT22;1721;51.238;9.562;2023-01-24T02:36:20;4.90;93.60
3416;DHT22;1721;51.238;9.562;2023-01-24T02:39:09;4.90;93.30
3416;DHT22;1721;51.238;9.562;2023-01-24T02:41:44;5.00;93.50
3416;DHT22;1721;51.238;9.562;2023-01-24T02:44:17;5.20;93.00
3416;DHT22;1721;51.238;9.562;2023-01-24T02:46:44;5.00;93.20
3416;DHT22;1721;51.238;9.562;2023-01-24T02:49:10;4.90;93.10
3416;DHT22;1721;51.238;9.562;2023-01-24T02:51:37;4.90;93.40
3416;DHT22;1721;51.238;9.562;2023-01-24T02:54:21;4.60;93.20
3416;DHT22;1721;51.238;9.562;2023-01-24T02:56:47;4.40;93.80
3416;DHT22;1721;51.238;9.562;2023-01-24T02:59:31;4.60;93.60
3416;DHT22;1721;51.238;9.562;2023-01-24T03:01:57;4.40;93.80
3416;DHT22;1721;51.238;9.562;2023-01-24T03:04:22;4.40;93.60
3416;DHT22;1721;51.238;9.562;2023-01-24T03:06:48;4.20;94.50
3416;DHT22;1721;51.238;9.562;2023-01-24T03:09:16;4.20;94.50
3416;DHT22;1721;51.238;9.562;2023-01-24T03:11:46;4.20;94.30
3416;DHT22;1721;51.238;9.562;2023-01-24T03:14:13;4.30;94.50
3416;DHT22;1721;51.238;9.562;2023-01-24T03:16:57;4.40;94.40
3416;DHT22;1721;51.238;9.562;2023-01-24T03:19:41;4.40;94.00
3416;DHT22;1721;51.238;9.562;2023-01-24T03:22:25;4.10;94.20
3416;DHT22;1721;51.238;9.562;2023-01-24T03:25:10;4.00;94.30
3416;DHT22;1721;51.238;9.562;2023-01-24T03:27:54;3.60;94.90
3416;DHT22;1721;51.238;9.562;2023-01-24T03:30:38;3.90;94.60
3416;DHT22;1721;51.238;9.562;2023-01-24T03:33:23;3.90;94.40
3416;DHT22;1721;51.238;9.562;2023-01-24T03:36:07;3.70;94.60
3416;DHT22;1721;51.238;9.562;2023-01-24T03:38:33;3.70;94.60
3416;DHT22;1721;51.238;9.562;2023-01-24T03:41:17;3.90;94.50
3416;DHT22;1721;51.238;9.562;2023-01-24T03:43:43;3.90;94.70
3416;DHT22;1721;51.238;9.562;2023-01-24T03:46:09;4.20;94.30
3416;DHT22;1721;51.238;9.562;2023-01-24T03:48:35;4.30;94.00
3416;DHT22;1721;51.238;9.562;2023-01-24T03:51:04;4.10;93.90
3416;DHT22;1721;51.238;9.562;2023-01-24T03:53:48;4.10;94.30
3416;DHT22;1721;51.238;9.562;2023-01-24T03:56:14;3.60;94.90
3416;DHT22;1721;51.238;9.562;2023-01-24T03:58:40;4.00;94.70
3416;DHT22;1721;51.238;9.562;2023-01-24T04:01:06;3.80;94.70
3416;DHT22;1721;51.238;9.562;2023-01-24T04:03:31;3.90;94.70
3416;DHT22;1721;51.238;9.562;2023-01-24T04:05:58;4.00;94.40
3416;DHT22;1721;51.238;9.562;2023-01-24T04:08:24;4.10;94.70
3416;DHT22;1721;51.238;9.562;2023-01-24T04:10:50;4.00;94.70
3416;DHT22;1721;51.238;9.562;2023-01-24T04:13:15;4.20;95.00
3416;DHT22;1721;51.238;9.562;2023-01-24T04:15:41;4.30;94.60
3416;DHT22;1721;51.238;9.562;2023-01-24T04:18:07;4.60;94.20
3416;DHT22;1721;51.238;9.562;2023-01-24T04:20:35;4.90;93.90
3416;DHT22;1721;51.238;9.562;2023-01-24T04:23:02;4.90;93.40
3416;DHT22;1721;51.238;9.562;2023-01-24T04:25:29;4.60;93.20
3416;DHT22;1721;51.238;9.562;2023-01-24T04:27:55;4.80;93.60
3416;DHT22;1721;51.238;9.562;2023-01-24T04:30:21;4.90;93.60
3416;DHT22;1721;51.238;9.562;2023-01-24T04:32:46;4.70;93.40
3416;DHT22;1721;51.238;9.562;2023-01-24T04:35:20;4.90;93.60
3416;DHT22;1721;51.238;9.562;2023-01-24T04:37:46;4.80;93.60
3416;DHT22;1721;51.238;9.562;2023-01-24T04:40:12;4.90;93.40
3416;DHT22;1721;51.238;9.562;2023-01-24T04:42:38;5.00;93.10
3416;DHT22;1721;51.238;9.562;2023-01-24T04:45:04;5.10;93.20
3416;DHT22;1721;51.238;9.562;2023-01-24T04:47:30;5.10;93.20
3416;DHT22;1721;51.238;9.562;2023-01-24T04:49:56;5.20;93.30
3416;DHT22;1721;51.238;9.562;2023-01-24T04:52:21;5.40;93.00
3416;DHT22;1721;51.238;9.562;2023-01-24T04:54:47;5.50;92.70
3416;DHT22;1721;51.238;9.562;2023-01-24T04:57:12;5.50;92.60
3416;DHT22;1721;51.238;9.562;2023-01-24T04:59:38;5.30;92.80
3416;DHT22;1721;51.238;9.562;2023-01-24T05:02:04;5.20;93.10
3416;DHT22;1721;51.238;9.562;2023-01-24T05:04:29;5.20;93.20
3416;DHT22;1721;51.238;9.562;2023-01-24T05:06:55;5.30;92.90
3416;DHT22;1721;51.238;9.562;2023-01-24T05:09:20;5.20;92.60
3416;DHT22;1721;51.238;9.562;2023-01-24T05:11:46;4.80;93.30
3416;DHT22;1721;51.238;9.562;2023-01-24T05:14:12;4.50;93.30
3416;DHT22;1721;51.238;9.562;2023-01-24T05:16:37;4.30;93.80
3416;DHT22;1721;51.238;9.562;2023-01-24T05:19:03;4.20;94.00
3416;DHT22;1721;51.238;9.562;2023-01-24T05:21:29;4.10;93.80
3416;DHT22;1721;51.238;9.562;2023-01-24T05:23:55;4.00;94.20
3416;DHT22;1721;51.238;9.562;2023-01-24T05:26:22;4.20;94.30
3416;DHT22;1721;51.238;9.562;2023-01-24T05:28:49;4.40;94.10
3416;DHT22;1721;51.238;9.562;2023-01-24T05:31:15;4.40;93.90
3416;DHT22;1721;51.238;9.562;2023-01-24T05:33:40;4.50;94.00
3416;DHT22;1721;51.238;9.562;2023-01-24T05:36:10;4.30;93.40
3416;DHT22;1721;51.238;9.562;2023-01-24T05:38:36;4.00;94.40
3416;DHT22;1721;51.238;9.562;2023-01-24T05:41:07;4.10;94.50
3416;DHT22;1721;51.238;9.562;2023-01-24T05:43:34;3.70;94.10
3416;DHT22;1721;51.238;9.562;2023-01-24T05:46:09;3.50;94.60
3416;DHT22;1721;51.238;9.562;2023-01-24T05:48:34;3.50;94.60
3416;DHT22;1721;51.238;9.562;2023-01-24T05:51:06;3.10;95.10
3416;DHT22;1721;51.238;9.562;2023-01-24T05:53:33;3.20;95.20
3416;DHT22;1721;51.238;9.562;2023-01-24T05:56:01;3.30;95.10
3416;DHT22;1721;51.238;9.562;2023-01-24T05:58:28;3.70;94.80
3416;DHT22;1721;51.238;9.562;2023-01-24T06:00:54;3.60;94.40
3416;DHT22;1721;51.238;9.562;2023-01-24T06:03:20;3.90;94.30
3416;DHT22;1721;51.238;9.562;2023-01-24T06:05:53;4.00;93.90
3416;DHT22;1721;51.238;9.562;2023-01-24T06:08:19;4.20;93.70
3416;DHT22;1721;51.238;9.562;2023-01-24T06:10:45;4.00;93.60
3416;DHT22;1721;51.238;9.562;2023-01-24T06:13:11;3.90;94.00
3416;DHT22;1721;51.238;9.562;2023-01-24T06:15:37;3.90;93.70
3416;DHT22;1721;51.238;9.562;2023-01-24T06:18:03;3.60;94.20
3416;DHT22;1721;51.238;9.562;2023-01-24T06:20:29;3.80;94.30
3416;DHT22;1721;51.238;9.562;2023-01-24T06:23:06;3.40;94.40
3416;DHT22;1721;51.238;9.562;2023-01-24T06:25:32;3.40;94.60
3416;DHT22;1721;51.238;9.562;2023-01-24T06:27:58;3.20;95.00
3416;DHT22;1721;51.238;9.562;2023-01-24T06:30:24;3.50;95.10
3416;DHT22;1721;51.238;9.562;2023-01-24T06:33:12;3.60;94.60
3416;DHT22;1721;51.238;9.562;2023-01-24T06:38:22;4.00;93.80
3416;DHT22;1721;51.238;9.562;2023-01-24T06:40:52;4.10;93.90
3416;DHT22;1721;51.238;9.562;2023-01-24T06:43:18;3.70;94.10
3416;DHT22;1721;51.238;9.562;2023-01-24T06:45:44;3.90;94.30
3416;DHT22;1721;51.238;9.562;2023-01-24T06:48:09;3.90;94.10
3416;DHT22;1721;51.238;9.562;2023-01-24T06:50:35;4.00;94.00
3416;DHT22;1721;51.238;9.562;2023-01-24T06:53:01;3.90;94.00
3416;DHT22;1721;51.238;9.562;2023-01-24T06:55:26;4.10;93.90
3416;DHT22;1721;51.238;9.562;2023-01-24T06:57:55;4.30;93.60
3416;DHT22;1721;51.238;9.562;2023-01-24T07:00:21;4.20;93.60
3416;DHT22;1721;51.238;9.562;2023-01-24T07:02:47;3.90;93.70
3416;DHT22;1721;51.238;9.562;2023-01-24T07:05:12;3.80;93.80
3416;DHT22;1721;51.238;9.562;2023-01-24T07:07:38;3.80;94.10
3416;DHT22;1721;51.238;9.562;2023-01-24T07:10:04;4.00;94.00
3416;DHT22;1721;51.238;9.562;2023-01-24T07:12:30;4.10;93.80
3416;DHT22;1721;51.238;9.562;2023-01-24T07:14:56;4.00;93.80
3416;DHT22;1721;51.238;9.562;2023-01-24T07:17:22;3.80;93.90
3416;DHT22;1721;51.238;9.562;2023-01-24T07:19:47;3.30;94.50
3416;DHT22;1721;51.238;9.562;2023-01-24T07:22:13;3.60;94.90
3416;DHT22;1721;51.238;9.562;2023-01-24T07:24:40;3.80;94.40
3416;DHT22;1721;51.238;9.562;2023-01-24T07:27:07;3.70;94.40
3416;DHT22;1721;51.238;9.562;2023-01-24T07:29:32;3.80;94.20
3416;DHT22;1721;51.238;9.562;2023-01-24T07:31:58;3.50;94.50
3416;DHT22;1721;51.238;9.562;2023-01-24T07:34:23;3.60;94.60
3416;DHT22;1721;51.238;9.562;2023-01-24T07:36:49;3.70;94.60
3416;DHT22;1721;51.238;9.562;2023-01-24T07:39:15;4.10;94.40
3416;DHT22;1721;51.238;9.562;2023-01-24T07:41:41;4.30;93.90
3416;DHT22;1721;51.238;9.562;2023-01-24T07:44:09;4.40;93.60
3416;DHT22;1721;51.238;9.562;2023-01-24T07:46:35;4.60;93.40
3416;DHT22;1721;51.238;9.562;2023-01-24T07:49:01;4.60;93.20
3416;DHT22;1721;51.238;9.562;2023-01-24T07:51:27;4.10;93.70
3416;DHT22;1721;51.238;9.562;2023-01-24T07:53:53;4.20;93.90
3416;DHT22;1721;51.238;9.562;2023-01-24T07:56:19;4.50;93.90
3416;DHT22;1721;51.238;9.562;2023-01-24T07:58:44;4.70;93.60
3416;DHT22;1721;51.238;9.562;2023-01-24T08:01:16;4.70;93.30
3416;DHT22;1721;51.238;9.562;2023-01-24T08:03:41;4.80;93.30
3416;DHT22;1721;51.238;9.562;2023-01-24T08:06:07;4.90;93.10
3416;DHT22;1721;51.238;9.562;2023-01-24T08:08:33;4.90;93.30
3416;DHT22;1721;51.238;9.562;2023-01-24T08:10:58;4.70;93.40
3416;DHT22;1721;51.238;9.562;2023-01-24T08:13:24;4.70;93.30
3416;DHT22;1721;51.238;9.562;2023-01-24T08:15:49;4.80;93.20
3416;DHT22;1721;51.238;9.562;2023-01-24T08:18:15;4.60;93.60
3416;DHT22;1721;51.238;9.562;2023-01-24T08:20:40;4.50;93.50
3416;DHT22;1721;51.238;9.562;2023-01-24T08:23:06;4.60;93.70
3416;DHT22;1721;51.238;9.562;2023-01-24T08:25:31;4.10;93.80
3416;DHT22;1721;51.238;9.562;2023-01-24T08:27:57;3.80;94.60
3416;DHT22;1721;51.238;9.562;2023-01-24T08:30:23;3.80;95.20
3416;DHT22;1721;51.238;9.562;2023-01-24T08:32:48;4.10;94.90
3416;DHT22;1721;51.238;9.562;2023-01-24T08:35:14;4.20;94.70
3416;DHT22;1721;51.238;9.562;2023-01-24T08:37:39;4.10;94.80
3416;DHT22;1721;51.238;9.562;2023-01-24T08:40:06;4.50;94.40
3416;DHT22;1721;51.238;9.562;2023-01-24T08:42:31;4.70;94.00
3416;DHT22;1721;51.238;9.562;2023-01-24T08:44:57;4.70;93.80
3416;DHT22;1721;51.238;9.562;2023-01-24T08:47:22;4.40;93.80
3416;DHT22;1721;51.238;9.562;2023-01-24T08:49:48;4.30;94.60
3416;DHT22;1721;51.238;9.562;2023-01-24T08:52:14;4.10;94.50
3416;DHT22;1721;51.238;9.562;2023-01-24T08:54:39;3.40;95.00
3416;DHT22;1721;51.238;9.562;2023-01-24T08:57:05;3.10;95.90
3416;DHT22;1721;51.238;9.562;2023-01-24T08:59:33;3.00;96.30
3416;DHT22;1721;51.238;9.562;2023-01-24T09:01:58;3.40;96.10
3416;DHT22;1721;51.238;9.562;2023-01-24T09:04:24;3.50;96.30
3416;DHT22;1721;51.238;9.562;2023-01-24T09:06:52;4.00;95.60
3416;DHT22;1721;51.238;9.562;2023-01-24T09:09:18;4.10;95.20
3416;DHT22;1721;51.238;9.562;2023-01-24T09:11:44;4.50;94.50
3416;DHT22;1721;51.238;9.562;2023-01-24T09:14:09;4.60;94.20
3416;DHT22;1721;51.238;9.562;2023-01-24T09:16:35;4.60;94.10
3416;DHT22;1721;51.238;9.562;2023-01-24T09:19:01;4.80;93.60
3416;DHT22;1721;51.238;9.562;2023-01-24T09:21:26;4.90;93.50
3416;DHT22;1721;51.238;9.562;2023-01-24T09:23:55;4.50;93.50
3416;DHT22;1721;51.238;9.562;2023-01-24T09:26:21;4.60;93.70
3416;DHT22;1721;51.238;9.562;2023-01-24T09:28:47;4.40;94.30
3416;DHT22;1721;51.238;9.562;2023-01-24T09:31:12;4.20;94.10
3416;DHT22;1721;51.238;9.562;2023-01-24T09:33:38;4.00;94.50
3416;DHT22;1721;51.238;9.562;2023-01-24T09:36:04;3.80;95.20
3416;DHT22;1721;51.238;9.562;2023-01-24T09:38:32;3.80;95.00
3416;DHT22;1721;51.238;9.562;2023-01-24T09:41:21;4.20;94.60
3416;DHT22;1721;51.238;9.562;2023-01-24T09:43:58;4.40;94.40
3416;DHT22;1721;51.238;9.562;2023-01-24T09:46:43;4.70;93.90
3416;DHT22;1721;51.238;9.562;2023-01-24T09:49:37;4.80;93.70
3416;DHT22;1721;51.238;9.562;2023-01-24T09:52:06;4.40;94.20
3416;DHT22;1721;51.238;9.562;2023-01-24T09:54:37;4.60;94.00
3416;DHT22;1721;51.238;9.562;2023-01-24T09:57:24;4.20;94.30
3416;DHT22;1721;51.238;9.562;2023-01-24T09:59:56;4.00;94.90
3416;DHT22;1721;51.238;9.562;2023-01-24T10:02:23;4.10;94.60
3416;DHT22;1721;51.238;9.562;2023-01-24T10:04:52;4.20;94.40
3416;DHT22;1721;51.238;9.562;2023-01-24T10:10:20;4.40;94.20
3416;DHT22;1721;51.238;9.562;2023-01-24T10:13:03;4.10;94.50
3416;DHT22;1721;51.238;9.562;2023-01-24T10:18:39;3.70;94.90
3416;DHT22;1721;51.238;9.562;2023-01-24T10:23:43;3.70;95.10
3416;DHT22;1721;51.238;9.562;2023-01-24T10:28:45;3.70;95.10
3416;DHT22;1721;51.238;9.562;2023-01-24T10:31:16;3.60;95.00
3416;DHT22;1721;51.238;9.562;2023-01-24T10:33:48;4.10;95.00
3416;DHT22;1721;51.238;9.562;2023-01-24T10:39:24;4.90;93.30
3416;DHT22;1721;51.238;9.562;2023-01-24T10:41:51;5.20;93.30
3416;DHT22;1721;51.238;9.562;2023-01-24T10:44:30;5.00;93.60
3416;DHT22;1721;51.238;9.562;2023-01-24T10:47:04;5.20;93.30
3416;DHT22;1721;51.238;9.562;2023-01-24T10:49:37;5.20;93.30
3416;DHT22;1721;51.238;9.562;2023-01-24T10:52:22;5.20;93.20
3416;DHT22;1721;51.238;9.562;2023-01-24T10:54:59;4.80;93.20
3416;DHT22;1721;51.238;9.562;2023-01-24T10:57:42;5.10;93.20
3416;DHT22;1721;51.238;9.562;2023-01-24T11:02:48;5.50;92.50
3416;DHT22;1721;51.238;9.562;2023-01-24T11:05:14;5.70;91.90
3416;DHT22;1721;51.238;9.562;2023-01-24T11:07:58;5.60;92.10
3416;DHT22;1721;51.238;9.562;2023-01-24T11:10:30;5.50;92.10
3416;DHT22;1721;51.238;9.562;2023-01-24T11:13:01;5.50;92.00
3416;DHT22;1721;51.238;9.562;2023-01-24T11:15:33;5.60;92.10
3416;DHT22;1721;51.238;9.562;2023-01-24T11:18:21;5.80;92.20
3416;DHT22;1721;51.238;9.562;2023-01-24T11:21:04;6.00;91.50
3416;DHT22;1721;51.238;9.562;2023-01-24T11:23:30;5.90;91.80
3416;DHT22;1721;51.238;9.562;2023-01-24T11:25:59;6.00;91.70
3416;DHT22;1721;51.238;9.562;2023-01-24T11:28:33;6.00;91.40
3416;DHT22;1721;51.238;9.562;2023-01-24T11:31:03;6.20;91.10
3416;DHT22;1721;51.238;9.562;2023-01-24T11:36:32;5.90;91.40
3416;DHT22;1721;51.238;9.562;2023-01-24T11:39:13;6.00;91.30
3416;DHT22;1721;51.238;9.562;2023-01-24T11:41:47;6.10;91.10
3416;DHT22;1721;51.238;9.562;2023-01-24T11:52:41;6.00;91.40
3416;DHT22;1721;51.238;9.562;2023-01-24T12:01:03;5.80;92.10
3416;DHT22;1721;51.238;9.562;2023-01-24T12:06:36;5.60;92.10
3416;DHT22;1721;51.238;9.562;2023-01-24T12:09:25;5.90;92.20
3416;DHT22;1721;51.238;9.562;2023-01-24T12:22:55;5.60;92.20
3416;DHT22;1721;51.238;9.562;2023-01-24T12:25:37;4.90;92.80
3416;DHT22;1721;51.238;9.562;2023-01-24T12:28:12;5.00;92.60
3416;DHT22;1721;51.238;9.562;2023-01-24T12:30:44;5.40;92.50
3416;DHT22;1721;51.238;9.562;2023-01-24T12:33:35;5.30;92.50
3416;DHT22;1721;51.238;9.562;2023-01-24T12:36:14;5.70;92.10
3416;DHT22;1721;51.238;9.562;2023-01-24T12:38:45;5.80;91.60
3416;DHT22;1721;51.238;9.562;2023-01-24T12:44:23;5.50;92.30
3416;DHT22;1721;51.238;9.562;2023-01-24T12:47:19;5.70;92.30
3416;DHT22;1721;51.238;9.562;2023-01-24T12:58:07;6.10;91.10
3416;DHT22;1721;51.238;9.562;2023-01-24T13:11:44;5.40;91.30
3416;DHT22;1721;51.238;9.562;2023-01-24T13:14:44;4.70;92.40
3416;DHT22;1721;51.238;9.562;2023-01-24T13:26:00;4.80;92.30
3416;DHT22;1721;51.238;9.562;2023-01-24T13:31:34;4.90;92.60
3416;DHT22;1721;51.238;9.562;2023-01-24T13:34:04;5.10;92.50
3416;DHT22;1721;51.238;9.562;2023-01-24T13:36:37;5.50;91.80
3416;DHT22;1721;51.238;9.562;2023-01-24T13:39:04;5.30;91.80
3416;DHT22;1721;51.238;9.562;2023-01-24T13:49:37;4.80;92.60
3416;DHT22;1721;51.238;9.562;2023-01-24T13:52:34;4.50;93.00
3416;DHT22;1721;51.238;9.562;2023-01-24T13:54:53;4.70;93.10
3416;DHT22;1721;51.238;9.562;2023-01-24T13:57:28;5.20;92.50
3416;DHT22;1721;51.238;9.562;2023-01-24T14:10:38;5.00;92.90
3416;DHT22;1721;51.238;9.562;2023-01-24T14:15:50;5.40;91.70
3416;DHT22;1721;51.238;9.562;2023-01-24T14:18:48;4.90;92.50
3416;DHT22;1721;51.238;9.562;2023-01-24T14:21:22;4.60;92.80
3416;DHT22;1721;51.238;9.562;2023-01-24T14:23:50;4.90;92.70
3416;DHT22;1721;51.238;9.562;2023-01-24T14:26:19;4.80;92.60
3416;DHT22;1721;51.238;9.562;2023-01-24T14:28:53;5.10;92.30
3416;DHT22;1721;51.238;9.562;2023-01-24T14:31:24;5.30;92.00
3416;DHT22;1721;51.238;9.562;2023-01-24T14:34:16;5.30;91.90
3416;DHT22;1721;51.238;9.562;2023-01-24T14:36:43;5.40;91.70
3416;DHT22;1721;51.238;9.562;2023-01-24T14:39:21;5.30;91.80
3416;DHT22;1721;51.238;9.562;2023-01-24T14:41:59;5.30;91.60
3416;DHT22;1721;51.238;9.562;2023-01-24T14:44:33;5.30;91.80
3416;DHT22;1721;51.238;9.562;2023-01-24T14:47:18;5.20;91.60
3416;DHT22;1721;51.238;9.562;2023-01-24T14:49:48;4.60;92.50
3416;DHT22;1721;51.238;9.562;2023-01-24T14:57:25;4.20;93.10
3416;DHT22;1721;51.238;9.562;2023-01-24T15:02:39;4.70;92.50
3416;DHT22;1721;51.238;9.562;2023-01-24T15:05:28;4.60;92.50
3416;DHT22;1721;51.238;9.562;2023-01-24T15:07:55;4.70;92.30
3416;DHT22;1721;51.238;9.562;2023-01-24T15:10:27;4.90;92.40
3416;DHT22;1721;51.238;9.562;2023-01-24T15:12:54;5.00;92.10
3416;DHT22;1721;51.238;9.562;2023-01-24T15:15:21;5.10;92.00
3416;DHT22;1721;51.238;9.562;2023-01-24T15:17:48;5.20;91.70
3416;DHT22;1721;51.238;9.562;2023-01-24T15:20:18;5.30;91.70
3416;DHT22;1721;51.238;9.562;2023-01-24T15:22:52;5.40;91.70
3416;DHT22;1721;51.238;9.562;2023-01-24T15:25:36;4.90;91.80
3416;DHT22;1721;51.238;9.562;2023-01-24T15:28:10;4.70;92.50
3416;DHT22;1721;51.238;9.562;2023-01-24T15:30:53;4.60;92.00
3416;DHT22;1721;51.238;9.562;2023-01-24T15:33:19;4.40;92.50
3416;DHT22;1721;51.238;9.562;2023-01-24T15:35:48;3.90;93.00
3416;DHT22;1721;51.238;9.562;2023-01-24T15:38:18;3.40;93.90
3416;DHT22;1721;51.238;9.562;2023-01-24T15:43:37;3.70;94.10
3416;DHT22;1721;51.238;9.562;2023-01-24T15:46:32;4.00;94.00
3416;DHT22;1721;51.238;9.562;2023-01-24T15:49:27;4.10;93.40
3416;DHT22;1721;51.238;9.562;2023-01-24T15:54:39;4.80;92.80
3416;DHT22;1721;51.238;9.562;2023-01-24T15:57:40;5.10;92.50
3416;DHT22;1721;51.238;9.562;2023-01-24T16:02:36;4.70;92.60
3416;DHT22;1721;51.238;9.562;2023-01-24T16:05:10;4.40;93.40
3416;DHT22;1721;51.238;9.562;2023-01-24T16:07:36;4.50;93.10
3416;DHT22;1721;51.238;9.562;2023-01-24T16:10:02;4.10;93.20
3416;DHT22;1721;51.238;9.562;2023-01-24T16:12:31;3.70;94.00
3416;DHT22;1721;51.238;9.562;2023-01-24T16:14:57;3.80;94.20
3416;DHT22;1721;51.238;9.562;2023-01-24T16:17:24;4.10;94.00
3416;DHT22;1721;51.238;9.562;2023-01-24T16:19:50;4.30;93.60
3416;DHT22;1721;51.238;9.562;2023-01-24T16:22:16;4.30;93.60
3416;DHT22;1721;51.238;9.562;2023-01-24T16:24:41;4.40;93.70
3416;DHT22;1721;51.238;9.562;2023-01-24T16:27:12;4.60;93.30
3416;DHT22;1721;51.238;9.562;2023-01-24T16:29:38;4.40;93.70
3416;DHT22;1721;51.238;9.562;2023-01-24T16:32:19;4.70;93.30
3416;DHT22;1721;51.238;9.562;2023-01-24T16:34:45;4.30;93.90
3416;DHT22;1721;51.238;9.562;2023-01-24T16:37:10;4.30;94.10
3416;DHT22;1721;51.238;9.562;2023-01-24T16:39:36;4.40;94.00
3416;DHT22;1721;51.238;9.562;2023-01-24T16:42:02;4.30;94.50
3416;DHT22;1721;51.238;9.562;2023-01-24T16:44:27;4.40;94.20
3416;DHT22;1721;51.238;9.562;2023-01-24T16:46:53;4.30;94.50
3416;DHT22;1721;51.238;9.562;2023-01-24T16:49:19;4.70;94.30
3416;DHT22;1721;51.238;9.562;2023-01-24T16:51:45;4.90;94.00
3416;DHT22;1721;51.238;9.562;2023-01-24T16:54:11;4.70;93.80
3416;DHT22;1721;51.238;9.562;2023-01-24T16:56:37;4.70;94.20
3416;DHT22;1721;51.238;9.562;2023-01-24T16:59:02;4.70;94.10
3416;DHT22;1721;51.238;9.562;2023-01-24T17:01:28;4.30;94.50
3416;DHT22;1721;51.238;9.562;2023-01-24T17:03:54;4.30;95.20
3416;DHT22;1721;51.238;9.562;2023-01-24T17:06:20;4.40;94.60
3416;DHT22;1721;51.238;9.562;2023-01-24T17:08:52;4.70;94.80
3416;DHT22;1721;51.238;9.562;2023-01-24T17:11:18;4.80;94.50
3416;DHT22;1721;51.238;9.562;2023-01-24T17:13:50;4.90;94.30
3416;DHT22;1721;51.238;9.562;2023-01-24T17:16:16;4.80;94.40
3416;DHT22;1721;51.238;9.562;2023-01-24T17:18:42;4.90;94.30
3416;DHT22;1721;51.238;9.562;2023-01-24T17:21:13;4.80;94.30
3416;DHT22;1721;51.238;9.562;2023-01-24T17:23:39;4.80;94.50
3416;DHT22;1721;51.238;9.562;2023-01-24T17:26:08;5.00;94.30
3416;DHT22;1721;51.238;9.562;2023-01-24T17:28:36;5.30;94.00
3416;DHT22;1721;51.238;9.562;2023-01-24T17:31:15;5.40;93.70
3416;DHT22;1721;51.238;9.562;2023-01-24T17:33:42;5.50;93.60
3416;DHT22;1721;51.238;9.562;2023-01-24T17:36:08;5.50;93.80
3416;DHT22;1721;51.238;9.562;2023-01-24T17:38:34;5.50;93.60
3416;DHT22;1721;51.238;9.562;2023-01-24T17:41:01;5.60;93.50
3416;DHT22;1721;51.238;9.562;2023-01-24T17:43:28;5.70;93.30
3416;DHT22;1721;51.238;9.562;2023-01-24T17:45:56;5.70;93.40
3416;DHT22;1721;51.238;9.562;2023-01-24T17:48:22;5.80;93.30
3416;DHT22;1721;51.238;9.562;2023-01-24T17:50:48;5.80;93.20
3416;DHT22;1721;51.238;9.562;2023-01-24T17:53:14;5.90;93.10
3416;DHT22;1721;51.238;9.562;2023-01-24T17:55:40;5.90;93.20
3416;DHT22;1721;51.238;9.562;2023-01-24T17:58:06;5.80;93.20
3416;DHT22;1721;51.238;9.562;2023-01-24T18:00:32;5.70;93.30
3416;DHT22;1721;51.238;9.562;2023-01-24T18:02:57;5.10;94.00
3416;DHT22;1721;51.238;9.562;2023-01-24T18:05:23;5.30;94.20
3416;DHT22;1721;51.238;9.562;2023-01-24T18:07:49;5.40;94.00
3416;DHT22;1721;51.238;9.562;2023-01-24T18:10:15;5.50;93.80
3416;DHT22;1721;51.238;9.562;2023-01-24T18:12:41;5.70;93.70
3416;DHT22;1721;51.238;9.562;2023-01-24T18:15:07;5.80;93.50
3416;DHT22;1721;51.238;9.562;2023-01-24T18:17:33;5.90;93.50
3416;DHT22;1721;51.238;9.562;2023-01-24T18:19:59;5.80;93.60
3416;DHT22;1721;51.238;9.562;2023-01-24T18:22:25;5.90;93.50
3416;DHT22;1721;51.238;9.562;2023-01-24T18:24:50;5.90;93.50
3416;DHT22;1721;51.238;9.562;2023-01-24T18:27:16;5.90;93.50
3416;DHT22;1721;51.238;9.562;2023-01-24T18:29:45;5.90;93.40
3416;DHT22;1721;51.238;9.562;2023-01-24T18:32:10;5.90;93.40
3416;DHT22;1721;51.238;9.562;2023-01-24T18:34:36;5.70;93.50
3416;DHT22;1721;51.238;9.562;2023-01-24T18:37:01;5.80;93.70
3416;DHT22;1721;51.238;9.562;2023-01-24T18:39:27;5.50;93.90